MET: Información y Pronóstico Aeronáutico

///////////////////////////////////////////////////////////////////////////////////////////////////////////////////////////////////////////////////////////////////////////////////////////////////////////////////////////////////////////////

Member for

3 años 10 meses
Enviado por meteorologia el Jue, 10/06/2021 - 09:33
27/5

27 DE MAYO 2022

INFORMACION METEOROLOGICA AERONAUTICA (METAR) 12:00 UTC

Aeropuerto AEROPARQUE J. NEWBERY

27 - 12:00 METAR SABE 271200Z 17004KT 130V200 9000 FEW010 SCT200 11/08 Q1019 NOSIG RMK PP000 =

Aeropuerto BAHIA BLANCA

27 - 12:01 METAR SAZB 271200Z 28005KT CAVOK 05/03 Q1021 RMK PP000 =

Aeropuerto BARILOCHE

27 - 12:00 METAR SAZS 271200Z 18004KT 9999 OVC012 M04/M06 Q1021 RMK PP/// =

Aeropuerto CATAMARCA

27 - 11:00 METAR SANC 271100Z 00000KT 7000 SCT007 OVC047 09/06 Q1020 =

Aeropuerto CHAPELCO

27 - 12:00 METAR SAZY 271200Z 23003KT 190V270 9999 BKN005 M04/M04 Q1020 =

Aeropuerto COMODORO RIVADAVIA

27 - 12:01 METAR SAVC 271200Z 29006KT 9999 FEW045 01/M06 Q1021 RMK PP000 =

Aeropuerto CORDOBA

27 - 12:00 METAR SACO 271200Z 35002KT 9999 FEW028 BKN060 09/05 Q1019 NOSIG RMK PP000 =

Aeropuerto CORRIENTES

27 - 12:00 METAR SARC 271200Z 20003KT 8000 BKN005 BKN100 16/16 Q1016 =

Aeropuerto EL CALAFATE

27 - 12:00 METAR SAWC 271200Z 27013KT 9999 FEW030 SCT200 03/M08 Q1017 =

Aeropuerto EL PALOMAR

27 - 12:00 METAR SADP 271200Z 16006KT 120V200 CAVOK 08/07 Q1018 RMK PP000 =

Aeropuerto ESQUEL

27 - 11:00 METAR SAVE 271100Z VRB01KT 4000 BCFG OVC003 M05/M05 Q1021 =

Aeropuerto EZEIZA

27 - 12:00 METAR SAEZ 271200Z 18003KT CAVOK 07/06 Q1020 NOSIG RMK PP000 =

Aeropuerto FORMOSA

27 - 12:00 METAR SARF 271200Z 18004KT 0100 FG NSC 19/18 Q1015 =

Aeropuerto IGUAZU/CATARATAS

27 - 12:00 METAR SARI 271200Z 16004KT 120V220 7000 -RA FEW020 OVC050 17/17 Q1019 RMK PP000 =

Aeropuerto JUJUY

27 - 12:00 METAR SASJ 271200Z 13003KT 110V170 4000 BR BKN004 12/11 Q1018 RMK PP000 =

Aeropuerto LA RIOJA

27 - 12:00 METAR SANL 271200Z 27002KT 9999 BKN040 11/08 Q1020 =

Aeropuerto MALARGUE

27 - 12:00 METAR SAMM 271200Z 32002KT 9999 FEW030 M03/M04 Q1020 =

Aeropuerto MAR DEL PLATA

27 - 12:00 METAR SAZM 271200Z 32003KT CAVOK 05/04 Q1020 RMK PP/// =

Aeropuerto MENDOZA

27 - 11:00 METAR SAME 271100Z 00000KT CAVOK 04/01 Q1020 =

Aeropuerto MORON

27 - 12:00 METAR SADM 271200Z 18005KT 8000 NSC 08/06 Q1020 =

Aeropuerto NEUQUEN

27 - 12:00 METAR SAZN 271200Z 29002KT CAVOK M05/M05 Q1022 =

Aeropuerto PARANA

27 - 12:00 METAR SAAP 271200Z 14010KT 9999 OVC011 11/10 Q1019 =

Aeropuerto POSADAS

27 - 12:00 METAR SARP 271200Z 05003KT 8000 RA SCT030 BKN050 18/18 Q1017 =

Aeropuerto PUERTO MADRYN

27 - 12:00 METAR SAVY 271200Z 25010KT CAVOK M03/M06 Q1020 =

Aeropuerto RECONQUISTA

27 - 12:00 METAR SATR 271200Z 20010KT 0500 FG VV/// 14/13 Q1016 =

Aeropuerto RESISTENCIA

27 - 12:00 METAR SARE 271200Z 22003KT 9999 BKN005 OVC016 15/15 Q1016 RMK PP/// =

Aeropuerto RIO CUARTO

27 - 11:00 METAR SAOC 271100Z 00000KT 9999 FEW020 BKN100 07/04 Q1019 =

Aeropuerto RIO GALLEGOS

27 - 12:00 METAR SAWG 271200Z 25019KT CAVOK 02/01 Q1012 =

Aeropuerto RIO GRANDE

27 - 12:00 METAR SAWE 271200Z 25016KT CAVOK 01/M04 Q1004 =

Aeropuerto ROSARIO

27 - 12:00 METAR SAAR 271200Z 14004KT 9999 OVC021 11/09 Q1019 RMK PP000 =

Aeropuerto SALTA

27 - 12:00 METAR SASA 271200Z VRB02KT 0200 R02/P2000N FG BKN002 08/08 Q1019 RMK PP000 =

Aeropuerto SAN FERNANDO

27 - 12:00 METAR SADF 271200Z 20003KT 9000 FEW008 09/08 Q1019 RMK PP000 =

Aeropuerto SAN JUAN

27 - 12:00 METAR SANU 271200Z 00000KT 9999 OVC035 06/03 Q1022 =

Aeropuerto SAN LUIS

27 - 12:00 METAR SAOU 271200Z 16005KT 9999 OVC020 08/03 Q1020 RMK ESTIMATED WIND =

Aeropuerto SAN RAFAEL

27 - 12:00 METAR SAMR 271200Z 23003KT 9999 BKN025 03/02 Q1022 =

Aeropuerto SANTA ROSA

27 - 12:00 METAR SAZR 271200Z 34004KT 9000 NSC 03/02 Q1020 =

Aeropuerto SANTIAGO DEL ESTERO

27 - 12:00 METAR SANE 271200Z 20005KT 9999 SCT020 OVC400 11/08 Q1019 =

Aeropuerto SAUCE VIEJO

27 - 12:00 METAR SAAV 271200Z 16007KT 8000 BKN008 SCT025 BKN100 12/11 Q1018 RMK PP/// =

Aeropuerto TANDIL

27 - 12:00 METAR SAZT 271200Z 18002KT CAVOK 05/04 Q1020 =

Aeropuerto TERMAS DE RIO HONDO

27 - 12:00 METAR SANR 271200Z 140/05KT 9999 OVC030 11/07 Q1019 =

Aeropuerto TRELEW

27 - 12:00 METAR SAVT 271200Z 29004KT CAVOK M03/M05 Q1021 =

Aeropuerto TUCUMAN

27 - 12:02 METAR SANT 271200Z VRB02KT 2500 -DZ BR OVC005 09/08 Q1019 RMK PP000 =

Aeropuerto USHUAIA

27 - 12:00 METAR SAWH 271200Z 25010KT 3500 RASN SCT008 OVC018 01/M01 Q1003 =

Aeropuerto VIEDMA

27 - 12:00 METAR SAVV 271200Z 32006KT 9999 FEW025 M03/M04 Q1020 =

Aeropuerto VILLA REYNOLDS

27 - 12:00 METAR SAOR 271200Z 27005KT 9999 FEW030 BKN100 07/02 Q1021 =

 PRONOSTICO DE AERODROMO (TAF) 11:00 UTC

Estación AEROPARQUE J. NEWBERY

27 - 11:25 SABE 271125Z 2712/2812 15005KT 9999 FEW010 TX14/2718Z TN10/2810Z BECMG 2712/2714 9999 FEW030 BECMG 2715/2717 11010KT CAVOK BECMG 2806/2808 08005KT 9999 SCT010 =

Estación BAHIA BLANCA

27 - 11:00 TAF SAZB 271100Z 2712/2812 24005KT 9999 BKN020 TX10/2719Z TN00/2809Z TEMPO 2712/2714 7000 -RA BECMG 2715/2717 18005KT SCT030 TEMPO 2721/2724 VRB02KT BECMG 2802/2804 02010KT CAVOK =

Estación BARILOCHE

27 - 11:00 TAF SAZS 271100Z 2712/2812 VRB03KT 9999 OVC015 TX03/2718Z TNM06/2809Z BECMG 2715/2717 9999 FEW020 SCT030 BECMG 2800/2802 16005KT 9999 SCT010 BKN020 =

Estación CATAMARCA

27 - 11:00 TAF SANC 271100Z 2712/2812 VRB03KT 5000 BR BKN020 TX21/2718Z TN05/2810Z BECMG 2713/2816 VRB03KT 9999 BKN040 BECMG 2808/2811 VRB02KT 9000 BCFG SCT005 BKN035 =

Estación CHAPELCO

27 - 11:00 TAF SAZY 271100Z 2712/2812 VRB02KT 7000 BR BCFG BKN010 TX04/2718Z TNM07/2809Z BECMG 2714/2716 09005KT CAVOK BECMG 2722/2724 25005KT TEMPO 2804/2811 7000 BR SCT020 =

Estación COMODORO RIVADAVIA

27 - 11:00 TAF SAVC 271100Z 2712/2812 27010KT CAVOK TX10/2719Z TN01/2810Z =

Estación CORDOBA

27 - 11:00 SACO 271100

Estación CORRIENTES

27 - 11:00 TAF SARC 271100Z 2712/2812 18005KT 9999 OVC004 TX16/2718Z TN14/2810Z PROB40 2715/2720 8000 -TSRA OVC008 OVC030 FEW040CB BECMG 2808/2809 1500 DZ BR =

Estación EL CALAFATE

27 - 11:00 TAF SAWC 271100Z 2712/2812 29010KT 9999 FEW030 BKN070 TX08/2719Z TNM01/2810Z =

Estación EL PALOMAR

27 - 11:00 TAF SADP 271100Z 2712/2812 18005KT CAVOK TX15/2719Z TN05/2809Z BECMG 2722/2724 12005KT BECMG 2802/2805 VRB02KT 5000 BR NSC PROB30 TEMPO 2807/2812 0800 FG =

Estación ESQUEL

27 - 11:00 TAF SAVE 271100Z 2712/2812 VRB03KT 2500 BCFG OVC002 TX01/2719Z TNM08/2810Z BECMG 2714/2716 6000 BR BKN010 =

Estación EZEIZA

27 - 11:00 TAF SAEZ 271100Z 2712/2812 16005KT CAVOK TX15/2719Z TN03/2809Z BECMG 2722/2724 09005KT BECMG 2802/2805 VRB02KT 5000 BR NSC TEMPO 2807/2812 0800 FG =

Estación FORMOSA

27 - 11:00 TAF SARF 271100Z 2712/2812 20005KT 0200 FG OVC003 TX19/2719Z TN18/2810Z PROB30 TEMPO 2714/2718 2000 -TSRA BKN005 OVC015 FEW040CB BECMG 2720/2721 1500 DZBR OVC004 BECMG 2804/2805 0200 FG OVC002 =

Estación IGUAZU/CATARATAS

27 - 11:00 TAF SARI 271100Z 2712/2812 02010KT 8000 -RA SCT020 OVC060 TX22/2719Z TN16/2810Z PROB40 2713/2718 9999 SCT020 OVC060 BECMG 2719/2720 5000 -TSRA OVC035 FEW050CB =

Estación JUJUY

27 - 11:00 TAF SASJ 271100Z 2712/2812 VRB03KT 3000 BR OVC006 TX21/2718Z TN08/2810Z BECMG 2707/2709 VRB03KT 3000 BR OVC005 BECMG 2718/2721 02005KT 8000 SCT010 BKN030 BECMG 2800/2703 VRB03KT 2000 DZ SCT005 BKN020 =

Estación LA RIOJA

27 - 11:00 TAF SANL 271100Z 2712/2812 20005KT 9999 FEW015 BKN030 TX19/2718Z TN07/2810Z BECMG 2803/2806 BKN025 =

Estación MAR DEL PLATA

27 - 11:00 TAF SAZM 271100Z 2712/2812 29005KT CAVOK TX12/2718Z TN01/2810Z BECMG 2715/2717 23010KT 9999 SCT030 BKN060 PROB30 TEMPO 2718/2722 7000 SHRA SCT025 FEW040TCU BKN050 BECMG 2801/2803 27005KT CAVOK =

Estación MENDOZA

27 - 11:00 TAF SAME 271100Z 2712/2812 14005KT 9999 FEW030 SCT100 TX14/2719Z TN03/2811Z TEMPO 2712/2716 VRB03KT 6000 FUHZ NSC =

Estación NEUQUEN

27 - 11:00 TAF SAZN 271100Z 2712/2812 VRB03KT CAVOK TX09/2719Z TNM04/2810Z BECMG 2722/2724 27005KT BECMG 2803/2805 25010KT =

Estación PARANA

27 - 11:00 TAF SAAP 271100Z 2712/2812 15010KT 9999 OVC015 TX17/2718Z TN08/2809Z TEMPO 2712/2716 7000 DZ BKN010 BECMG 2715/2718 OVC025 BECMG 2722/2801 12005KT BKN040 BECMG 2806/2808 5000 -RA DZBR BKN010 OVC030 =

Estación POSADAS

27 - 11:00 TAF SARP 271100Z 2712/2812 05005KT 9999 SCT040 OVC050 TX19/2718Z TN18/2810Z TEMPO 2715/2718 3000 TSRA BKN020 FEW050CB BECMG 2723/2724 2000 -RADZ BKN010 OVC030 =

Estación RESISTENCIA

27 - 11:00 TAF SARE 271100Z 2712/2812 18005KT 9999 OVC004 TX16/2718Z TN14/2810Z PROB40 2715/2720 8000 -TSRA OVC008 OVC030 FEW040CB BECMG 2808/2809 1500 DZ BR =

Estación RIO CUARTO

27 - 11:00 TAF SAOC 271100Z 2712/2812 18005KT 9999 BKN020 OVC040 TX17/2718Z TN06/2811Z BECMG 2713/2716 14005KT 9999 BKN030 BECMG 2809/2812 07005KT 9999 SCT015 OVC030 =

Estación RIO GALLEGOS

27 - 11:00 TAF SAWG 271100Z 2712/2812 25015KT CAVOK TX07/2719Z TN00/2810Z BECMG 2714/2716 25025G48KT 9999 DZ BKN015 OVC040 =

Estación RIO GRANDE

27 - 11:00 TAF SAWE 271100Z 2712/2812 25015KT CAVOK TX07/2719Z TNM01/2812Z TEMPO 2717/2802 20010KT 9999 DZ BKN025 OVC060 =

Estación ROSARIO

27 - 11:00 TAF SAAR 271100Z 2712/2812 16005KT 9999 SCT020 TX17/2718Z TN09/2810Z BECMG 2714/2716 12010KT 9999 SCT030 TEMPO 2807/2811 11005KT 4000 BR SCT015 =

Estación SALTA

27 - 11:00 TAF SASA 271100Z 2712/2812 18003KT 100 FG SCT006 BKN035 TX20/2718Z TN06/2810Z BECMG 2718/2721 02010KT 9999 SCT030 BECMG 2803/2806 VRB02KT 500 FG SCT007 BKN025 BECMG 2807/2710 =

Estación SAN FERNANDO

27 - 11:00 TAF SADF 271100Z 2712/2812 18005KT 9000 BKN008 TX14/2718Z TN09/2810Z BECMG 2712/2713 CAVOK BECMG 2716/2717 14010KT BECMG 2720/2722 09010KT BECMG 2805/2807 VRB02KT =

Estación SAN JUAN

27 - 11:00 TAF SANU 271100Z 2712/2812 27005KT 9999 SCT030 TX15/2720Z TN02/2810Z TEMPO 2712/2716 VRB03KT 5000 FUHZ BKN030 =

Estación SAN LUIS

27 - 11:00 TAF SAOU 271100Z 2712/2812 09005KT 9999 SCT020 SCT100 TX14/2718Z TN07/2809Z BECMG 2715/27176 23005KT =

Estación SAN RAFAEL

27 - 11:00 TAF SAMR 271100Z 2712/2812 23005KT 9999 FEW040 SCT100 TX13/2720Z TN02/2811Z BECMG 2714/2716 05005KT =

Estación SANTA ROSA

27 - 11:00 TAF SAZR 271100Z 2712/2812 VRB02KT CAVOK TX13/2718Z TN05/2809Z BECMG 2713/2715 9999 SCT020 BECMG 2715/2718 09005KT BECMG 2722/2724 CAVOK BECMG 2807/2809 18005KT 9999 BKN040 =

Estación SANTIAGO DEL ESTERO

27 - 11:00 TAF SANE 271100Z 2712/2812 16005KT 2500 BR SCT010 OVC040 TX19/2718Z TN07/2811Z BECMG 2713/1715 9999 OVC030 BECMG 2809/2812 20010KT 3000 DZ BR SCT007 OVC030 =

Estación SAUCE VIEJO

27 - 11:00 TAF SAAV 271100Z 2712/2812 18010KT 9999 BKN025 TX16/2718Z TN08/2809Z TEMPO 2712/2716 7000 DZ BKN020 BECMG 2715/2718 OVC030 BECMG 2722/2801 12005KT BKN040 BECMG 2806/2808 5000 -RA DZBR BKN010 OVC030 =

Estación TERMAS DE RIO HONDO

27 - 11:00 TAF SANR 271100Z 2712/2812 VRB03KT 9999 BKN035 TX19/2718Z TN07/2811Z BECMG 2806/2809 18002KT 500 FG OVC005 =

Estación TRELEW

27 - 11:00 TAF SAVT 271100Z 2712/2812 29005KT CAVOK TX12/2719Z TNM03/2810Z =

Estación TUCUMAN

27 - 11:00 TAF SANT 271100Z 2712/2812 09005KT 5000 BR TX21/2718Z TN10/2810Z BECMG 2715/2718 9999 18005KT 9999 BKN025 BECMG 2803/2806 9999 SCT010 BKN035 BECMG 2809/2812 VRB03KT SCT010 BKN030 =

Estación USHUAIA

27 - 11:00 TAF SAWH 271100Z 2712/2812 23025G35KT 4000 RASN BKN006 OVC010 TX04/2719Z TNM03/2710Z BECMG 2713/2715 19020G40KT 1000 SNRA BKN002 OVC025 =

Estación VIEDMA

27 - 11:00 TAF SAVV 271100Z 2712/2812 32005KT CAVOK TX12/2719Z TNM04/2810Z BECMG 2707/2709 19010KT BECMG 2801/2803 5000 BR BKN010 =